Home   Weather   Denmark   Odense   Past weeks
Flag for Denmark

Past Weather in Odense, Denmark — Yesterday and Last 2 Weeks

Currently: 37 °F. Chilly. (Weather station: Soenderborg Lufthavn, Denmark). See more current weather

Past Weather in Odense — Graph

°F

Odense Temperature Yesterday

Maximum temperature yesterday: 50 °F (at 3:50 pm)
Minimum temperature yesterday: 34 °F (at 4:50 am)
Average temperature yesterday: 42 °F

High & Low Weather Summary for the Past Weeks

 TemperatureHumidityPressure
High66 °F (Mar 31, 2:50 pm)100% (Apr 11, 7:20 am)30.45 "Hg (Apr 11, 7:20 am)
Low32 °F (Apr 5, 8:20 am)25% (Apr 14, 5:20 pm)29.39 "Hg (Apr 5, 5:50 am)
Average41 °F75%29.97 "Hg
* Reported Mar 31 6:20 am — Apr 15 6:20 am, Odense. Weather by CustomWeather, © 2021

Note: Actual official high and low records may vary slightly from our data, if they occured in-between our weather recording intervals... More about our weather records

Odense Weather History for the Previous 24 Hours

Scroll right to see more
 ConditionsComfort  
Time TempWeatherWind HumidityBarometerVisibility
6:20 am
Thu, Apr 15
37 °FChilly.3 mph87%30.45 "HgN/A
5:50 am37 °FChilly.3 mph87%30.45 "HgN/A
5:20 am36 °FChilly.5 mph93%30.42 "HgN/A
4:50 am34 °FChilly.6 mph93%30.42 "HgN/A
4:20 am36 °FChilly.3 mph87%30.42 "HgN/A
3:50 am36 °FChilly.3 mph87%30.42 "HgN/A
3:20 am36 °FChilly.2 mph81%30.42 "HgN/A
2:50 am37 °FChilly.2 mph75%30.42 "HgN/A
2:20 am36 °FChilly.No wind81%30.42 "HgN/A
1:50 am37 °FChilly.5 mph81%30.42 "HgN/A
1:20 am37 °FChilly.6 mph81%30.42 "HgN/A
12:50 am39 °FChilly.6 mph75%30.42 "HgN/A
12:20 am37 °FChilly.5 mph75%30.42 "HgN/A
11:50 pm
Wed, Apr 14
37 °FChilly.3 mph75%30.42 "HgN/A
11:20 pm39 °FChilly.6 mph70%30.42 "HgN/A
10:50 pm39 °FChilly.No wind70%30.39 "HgN/A
10:20 pm39 °FChilly.2 mph70%30.39 "HgN/A
9:50 pm39 °FChilly.No wind65%30.39 "HgN/A
9:20 pm41 °FQuite cool.2 mph61%30.39 "HgN/A
8:50 pm41 °FQuite cool.5 mph61%30.36 "HgN/A
8:20 pm43 °FPartly sunny.6 mph57%30.36 "HgN/A
7:50 pm43 °FPartly sunny.7 mph53%30.36 "HgN/A
7:20 pm46 °FCool.6 mph50%30.36 "HgN/A
6:50 pm46 °FCool.6 mph46%30.36 "HgN/A
6:20 pm48 °FPassing clouds.6 mph40%30.33 "HgN/A
5:50 pm48 °FPassing clouds.2 mph32%30.36 "HgN/A
5:20 pm48 °FCool.1 mph25%30.36 "HgN/A
4:50 pm50 °FCool.5 mph32%30.36 "HgN/A
4:20 pm48 °FCool.5 mph32%30.36 "HgN/A
3:50 pm50 °FPassing clouds.6 mph35%30.36 "HgN/A
3:20 pm48 °FPassing clouds.6 mph40%30.36 "HgN/A
2:50 pm48 °FPassing clouds.6 mph37%30.36 "HgN/A
2:20 pm48 °FPassing clouds.5 mph43%30.36 "HgN/A
1:20 pm48 °FScattered clouds.9 mph50%30.36 "HgN/A
12:50 pm48 °FScattered clouds.8 mph46%30.36 "HgN/A
12:20 pm46 °FScattered clouds.7 mph62%30.36 "HgN/A
11:52 am46 °FScattered clouds.8 mph62%30.36 "HgN/A
11:20 am45 °FScattered clouds.7 mph66%30.36 "HgN/A
10:50 am45 °FScattered clouds.8 mph71%30.36 "HgN/A
10:20 am43 °FScattered clouds.8 mph76%30.36 "HgN/A
9:51 am41 °FScattered clouds.9 mph81%30.36 "HgN/A
9:20 am41 °FScattered clouds.10 mph81%30.36 "HgN/A
8:50 am41 °FScattered clouds.12 mph81%30.36 "HgN/A
8:20 am39 °FSunny.12 mph81%30.36 "Hg10 mi
7:51 am37 °FScattered clouds.9 mph87%30.36 "HgN/A
7:20 am37 °FChilly.8 mph87%30.33 "HgN/A
Weather by CustomWeather, © 2021

See weather overview